Time;durP1;ratioP1;P1;durP2;ratioP2;P2;SDS_P1;SDS_P2;PMS_P1;PMS_P2;Temp;Humidity;BMP_temperature;BMP_pressure;BME280_temperature;BME280_humidity;BME280_pressure;Samples;Min_cycle;Max_cycle;Signal;HPM_P1;HPM_P2
2023/05/04 00:00:30;;;;;;;16.00;6.60;;;;;9.40;101529.00;;;;9857845;29;20249;-79
2023/05/04 00:05:31;;;;;;;13.40;7.27;;;;;9.40;101519.00;;;;9855534;29;20299;-79
2023/05/04 00:10:32;;;;;;;9.00;7.07;;;;;9.40;101521.00;;;;9832242;29;20245;-79
2023/05/04 00:15:34;;;;;;;10.60;7.17;;;;;9.30;101520.00;;;;9854664;29;20226;-79
2023/05/04 00:20:36;;;;;;;14.23;7.67;;;;;9.30;101497.00;;;;9853156;29;20231;-79
2023/05/04 00:25:37;;;;;;;12.20;7.60;;;;;9.20;101493.00;;;;9841408;29;20222;-78
2023/05/04 00:30:39;;;;;;;11.23;7.60;;;;;9.20;101490.00;;;;9841928;29;20222;-78
2023/05/04 00:35:40;;;;;;;17.77;7.73;;;;;9.10;101487.00;;;;9829690;29;20218;-78
2023/05/04 00:40:41;;;;;;;12.43;7.57;;;;;9.10;101478.00;;;;9860055;29;20302;-77
2023/05/04 00:45:43;;;;;;;11.27;7.43;;;;;9.00;101469.00;;;;9869401;29;20246;-78
2023/05/04 00:50:44;;;;;;;9.17;7.23;;;;;8.90;101470.00;;;;9869389;29;20258;-79
2023/05/04 00:55:45;;;;;;;8.33;6.83;;;;;8.90;101462.00;;;;9855256;29;20222;-78
2023/05/04 01:00:47;;;;;;;12.27;8.40;;;;;8.70;101455.00;;;;9839774;29;20324;-77
2023/05/04 01:06:00;;;;;;;12.27;7.40;;;;;8.70;101446.00;;;;9869343;29;20223;-79
2023/05/04 01:11:19;;;;;;;11.37;7.20;;;;;8.60;101446.00;;;;9837423;29;20222;-78
2023/05/04 01:16:21;;;;;;;11.37;8.20;;;;;8.50;101455.00;;;;9868592;29;20229;-77
2023/05/04 01:21:22;;;;;;;13.93;8.00;;;;;8.50;101444.00;;;;9836645;29;21115;-79
2023/05/04 01:26:31;;;;;;;11.97;8.10;;;;;8.40;101439.00;;;;9818887;29;20521;-79
2023/05/04 01:31:35;;;;;;;16.30;7.80;;;;;8.50;101445.00;;;;9830233;29;20496;-79
2023/05/04 01:42:21;;;;;;;12.00;8.03;;;;;8.40;101429.00;;;;11243960;23;20315;-78
2023/05/04 01:47:22;;;;;;;11.80;8.27;;;;;8.40;101433.00;;;;9889414;29;21436;-79
2023/05/04 01:52:23;;;;;;;13.00;8.07;;;;;8.30;101431.00;;;;9923277;29;21007;-79
2023/05/04 01:57:25;;;;;;;15.23;8.13;;;;;8.30;101434.00;;;;9894465;29;20229;-78
2023/05/04 02:02:26;;;;;;;11.53;7.47;;;;;8.30;101430.00;;;;9878229;29;21048;-78
2023/05/04 02:07:28;;;;;;;12.87;8.30;;;;;8.20;101427.00;;;;9916600;29;20252;-79
2023/05/04 02:12:29;;;;;;;12.13;8.23;;;;;8.20;101437.00;;;;9887816;29;20217;-80
2023/05/04 02:17:32;;;;;;;11.50;8.23;;;;;8.10;101443.00;;;;9902305;29;20704;-79
2023/05/04 02:22:34;;;;;;;14.93;8.43;;;;;7.90;101457.00;;;;9904925;29;20237;-80
2023/05/04 02:27:35;;;;;;;18.03;8.70;;;;;7.80;101455.00;;;;9894009;29;21327;-78
2023/05/04 02:32:36;;;;;;;10.40;7.40;;;;;7.70;101453.00;;;;9923121;29;20338;-79
2023/05/04 02:37:38;;;;;;;12.13;8.70;;;;;7.60;101449.00;;;;9909830;29;20225;-78
2023/05/04 02:42:39;;;;;;;13.80;8.47;;;;;7.50;101441.00;;;;9882934;29;20631;-78
2023/05/04 02:47:40;;;;;;;16.53;8.77;;;;;7.50;101437.00;;;;9905417;29;20224;-78
2023/05/04 02:52:42;;;;;;;14.00;8.00;;;;;7.40;101444.00;;;;9907317;29;20237;-78
2023/05/04 02:57:43;;;;;;;14.43;9.23;;;;;7.20;101438.00;;;;9937219;29;20931;-77
2023/05/04 03:02:44;;;;;;;16.10;8.80;;;;;7.20;101435.00;;;;9874304;29;20791;-78
2023/05/04 03:07:46;;;;;;;12.30;8.53;;;;;7.10;101429.00;;;;9918389;29;21806;-79
2023/05/04 03:12:47;;;;;;;13.53;8.90;;;;;7.00;101415.00;;;;9871668;29;20521;-79
2023/05/04 03:17:49;;;;;;;12.13;8.60;;;;;6.90;101408.00;;;;9903718;29;20225;-79
2023/05/04 03:22:51;;;;;;;16.80;9.87;;;;;6.80;101407.00;;;;10365395;24;20313;-79
2023/05/04 03:27:52;;;;;;;13.03;9.63;;;;;6.80;101391.00;;;;10774052;24;20559;-79
2023/05/04 03:32:54;;;;;;;17.07;9.70;;;;;6.80;101398.00;;;;9865434;29;20641;-77
2023/05/04 03:37:55;;;;;;;13.47;10.13;;;;;6.80;101384.00;;;;9872058;29;21733;-82
2023/05/04 03:42:57;;;;;;;17.00;10.13;;;;;6.90;101383.00;;;;9893445;29;20252;-81
2023/05/04 04:34:52;;;;;;;16.63;10.07;;;;;6.80;101394.00;;;;4087162;24;20466;-76
2023/05/04 04:39:54;;;;;;;14.77;10.20;;;;;6.70;101387.00;;;;10885086;24;20257;-82
2023/05/04 04:44:55;;;;;;;14.13;9.40;;;;;6.70;101382.00;;;;9939796;29;20215;-82
2023/05/04 04:49:56;;;;;;;17.40;11.10;;;;;6.70;101379.00;;;;9911734;29;20226;-84
2023/05/04 04:54:58;;;;;;;14.07;9.63;;;;;6.80;101382.00;;;;9903460;29;20591;-80
2023/05/04 05:00:00;;;;;;;18.03;10.60;;;;;6.90;101379.00;;;;9928839;29;20226;-79
2023/05/04 05:05:01;;;;;;;18.97;11.27;;;;;7.10;101380.00;;;;10111172;24;20330;-79
2023/05/04 05:15:47;;;;;;;19.23;10.80;;;;;7.60;101373.00;;;;11093434;23;20320;-81
2023/05/04 05:32:18;;;;;;;18.17;11.03;;;;;8.10;101367.00;;;;10478746;23;20553;-83
2023/05/04 05:37:19;;;;;;;16.13;10.70;;;;;8.30;101373.00;;;;9916696;29;20226;-81
2023/05/04 05:42:21;;;;;;;21.00;11.03;;;;;8.40;101363.00;;;;9918395;29;20229;-82
2023/05/04 05:47:22;;;;;;;18.60;11.27;;;;;8.60;101363.00;;;;9947279;29;20218;-84
2023/05/04 05:52:24;;;;;;;19.70;11.63;;;;;9.00;101362.00;;;;9949875;29;20245;-82
2023/05/04 05:57:25;;;;;;;19.37;11.00;;;;;9.40;101365.00;;;;10000596;24;20229;-82
2023/05/04 06:02:26;;;;;;;16.20;10.90;;;;;9.90;101349.00;;;;9850396;29;20238;-80
2023/05/04 06:07:27;;;;;;;16.73;10.07;;;;;10.70;101355.00;;;;9842449;29;20235;-79
2023/05/04 06:12:29;;;;;;;13.07;9.00;;;;;11.20;101349.00;;;;9864682;29;20254;-80
2023/05/04 06:17:30;;;;;;;18.10;9.57;;;;;11.80;101341.00;;;;9862272;29;20226;-79
2023/05/04 06:22:31;;;;;;;11.30;9.20;;;;;12.00;101335.00;;;;9852916;29;20238;-79
2023/05/04 06:27:33;;;;;;;14.27;9.30;;;;;12.50;101330.00;;;;9808989;29;20226;-81
2023/05/04 06:32:34;;;;;;;13.67;9.17;;;;;12.70;101335.00;;;;9824624;29;20781;-81
2023/05/04 06:37:36;;;;;;;13.10;8.70;;;;;13.30;101332.00;;;;9838448;29;20613;-80
2023/05/04 06:42:37;;;;;;;16.13;8.13;;;;;13.90;101339.00;;;;9823688;29;20242;-81
2023/05/04 06:47:38;;;;;;;11.23;8.40;;;;;14.30;101342.00;;;;9837786;29;20218;-80
2023/05/04 06:52:43;;;;;;;12.13;8.83;;;;;14.60;101334.00;;;;9801953;29;20232;-82
2023/05/04 06:57:44;;;;;;;16.07;8.87;;;;;15.00;101329.00;;;;9781136;29;20231;-82
2023/05/04 07:02:46;;;;;;;14.33;8.63;;;;;15.20;101331.00;;;;9778476;29;20254;-81
2023/05/04 07:07:48;;;;;;;17.17;7.80;;;;;15.70;101337.00;;;;9808711;29;20231;-82
2023/05/04 07:12:52;;;;;;;15.63;8.40;;;;;15.90;101329.00;;;;9791804;29;20227;-81
2023/05/04 07:17:53;;;;;;;10.90;8.27;;;;;16.20;101317.00;;;;9809331;29;20745;-81
2023/05/04 07:22:55;;;;;;;10.38;6.82;;;;;16.50;101321.00;;;;9793383;29;20251;-83
2023/05/04 07:27:57;;;;;;;11.30;7.57;;;;;16.50;101315.00;;;;9807082;29;20992;-81
2023/05/04 07:32:58;;;;;;;16.63;7.90;;;;;16.80;101304.00;;;;9814548;29;20596;-82
2023/05/04 07:38:00;;;;;;;13.70;8.52;;;;;17.30;101302.00;;;;9797315;29;20599;-83
2023/05/04 07:43:01;;;;;;;7.05;6.35;;;;;17.50;101312.00;;;;9813745;29;20239;-82
2023/05/04 07:48:02;;;;;;;12.73;7.13;;;;;17.40;101308.00;;;;9812541;29;20869;-82
2023/05/04 07:53:03;;;;;;;10.40;7.28;;;;;18.00;101298.00;;;;9811119;29;20223;-82
2023/05/04 07:58:05;;;;;;;11.07;7.25;;;;;18.70;101281.00;;;;9798350;29;21831;-80
2023/05/04 08:03:06;;;;;;;9.27;6.78;;;;;19.20;101274.00;;;;9812011;29;20323;-82
2023/05/04 08:08:08;;;;;;;9.05;6.40;;;;;19.70;101273.00;;;;9813730;29;20238;-82
2023/05/04 08:13:09;;;;;;;11.50;6.47;;;;;20.20;101264.00;;;;9784062;29;20246;-82
2023/05/04 08:18:10;;;;;;;8.57;6.05;;;;;20.50;101259.00;;;;9797705;29;20231;-82
2023/05/04 08:23:12;;;;;;;9.15;5.35;;;;;20.80;101254.00;;;;9798269;29;20224;-84
2023/05/04 08:28:14;;;;;;;7.57;5.80;;;;;21.30;101241.00;;;;9812783;29;20311;-82
2023/05/04 08:33:15;;;;;;;8.48;5.32;;;;;21.90;101232.00;;;;9800518;29;20229;-82
2023/05/04 08:38:16;;;;;;;6.05;5.43;;;;;22.20;101230.00;;;;9811548;29;20579;-83
2023/05/04 08:43:18;;;;;;;6.05;5.45;;;;;22.80;101226.00;;;;9796210;29;21892;-83
2023/05/04 08:48:19;;;;;;;7.13;5.28;;;;;23.10;101225.00;;;;9812379;29;20317;-83
2023/05/04 08:53:21;;;;;;;7.43;5.00;;;;;23.60;101223.00;;;;9812065;29;20263;-83
2023/05/04 08:58:24;;;;;;;7.30;4.50;;;;;23.70;101224.00;;;;9796608;29;20907;-84
2023/05/04 09:03:27;;;;;;;8.50;4.40;;;;;24.00;101227.00;;;;9812049;29;20226;-83
2023/05/04 09:08:28;;;;;;;6.57;4.82;;;;;24.20;101208.00;;;;9813147;29;20223;-84
2023/05/04 09:13:30;;;;;;;5.97;4.70;;;;;24.10;101211.00;;;;9797664;29;20254;-84
2023/05/04 09:18:38;;;;;;;10.55;5.18;;;;;24.50;101187.00;;;;9813286;29;20887;-82
2023/05/04 09:23:48;;;;;;;6.07;4.50;;;;;24.50;101181.00;;;;9813523;29;20836;-82
2023/05/04 09:28:49;;;;;;;6.75;4.50;;;;;24.80;101166.00;;;;9797829;29;20904;-83
2023/05/04 09:33:50;;;;;;;9.38;4.72;;;;;25.40;101156.00;;;;9812883;29;20239;-84
2023/05/04 09:38:55;;;;;;;7.40;5.05;;;;;26.00;101159.00;;;;9800096;29;20883;-83
2023/05/04 09:43:56;;;;;;;8.23;5.00;;;;;25.90;101159.00;;;;9796887;29;20220;-83
2023/05/04 09:48:57;;;;;;;6.05;4.03;;;;;25.90;101148.00;;;;9781470;29;20231;-83
2023/05/04 09:54:02;;;;;;;8.55;4.45;;;;;25.90;101136.00;;;;9812606;29;20254;-82
2023/05/04 09:59:04;;;;;;;13.43;4.30;;;;;26.10;101137.00;;;;9796792;29;20243;-84
2023/05/04 10:04:05;;;;;;;18.65;4.50;;;;;26.50;101136.00;;;;9811431;29;20235;-83
2023/05/04 10:09:07;;;;;;;8.68;4.63;;;;;27.00;101118.00;;;;9813388;29;21397;-85
2023/05/04 10:14:09;;;;;;;8.25;4.25;;;;;26.80;101124.00;;;;9814814;29;20641;-84
2023/05/04 10:19:23;;;;;;;9.88;4.35;;;;;26.90;101126.00;;;;9814155;29;20243;-83
2023/05/04 10:24:40;;;;;;;16.67;4.90;;;;;27.30;101128.00;;;;9811830;29;20859;-84
2023/05/04 10:29:42;;;;;;;8.50;4.10;;;;;27.90;101130.00;;;;9812989;29;20227;-85
2023/05/04 10:34:44;;;;;;;6.72;4.53;;;;;28.20;101122.00;;;;9819289;29;20235;-84
2023/05/04 10:39:52;;;;;;;4.97;4.45;;;;;28.40;101130.00;;;;9810951;29;21117;-81
2023/05/04 10:44:55;;;;;;;9.07;4.95;;;;;28.50;101119.00;;;;9794016;29;21905;-82
2023/05/04 10:50:02;;;;;;;5.32;4.82;;;;;28.70;101106.00;;;;9794879;29;20263;-80
2023/05/04 10:55:05;;;;;;;6.88;4.88;;;;;29.00;101090.00;;;;9809594;29;20224;-80
2023/05/04 11:00:08;;;;;;;6.63;4.45;;;;;28.40;101089.00;;;;9796834;29;20300;-80
2023/05/04 11:05:16;;;;;;;7.45;4.28;;;;;27.70;101079.00;;;;9799764;29;20667;-79
2023/05/04 11:10:24;;;;;;;5.20;4.10;;;;;28.80;101072.00;;;;9804824;29;20950;-80
2023/05/04 11:15:26;;;;;;;6.47;3.90;;;;;29.20;101064.00;;;;9817110;29;20310;-79
2023/05/04 11:20:27;;;;;;;6.22;3.97;;;;;29.70;101054.00;;;;9817449;29;20326;-79
2023/05/04 11:25:29;;;;;;;5.28;3.88;;;;;30.00;101046.00;;;;9820834;29;20561;-79
2023/05/04 11:30:56;;;;;;;5.93;4.15;;;;;29.60;101033.00;;;;9870860;24;20242;31
2023/05/04 11:41:52;;;;;;;4.30;3.70;;;;;30.10;101006.00;;;;10464148;24;20361;31
2023/05/04 11:46:55;;;;;;;7.07;4.20;;;;;29.90;100996.00;;;;10082940;24;20249;-81
2023/05/04 11:52:26;;;;;;;5.30;2.65;;;;;30.00;100992.00;;;;10202329;24;20208;31
2023/05/04 11:57:30;;;;;;;4.25;2.35;;;;;29.80;100982.00;;;;9913414;24;20272;-81
2023/05/04 12:02:32;;;;;;;2.72;2.53;;;;;29.50;100973.00;;;;9897479;29;20718;-82
2023/05/04 12:07:36;;;;;;;2.60;2.40;;;;;29.80;100960.00;;;;9861971;29;20246;-81
2023/05/04 12:12:37;;;;;;;7.15;3.25;;;;;30.00;100943.00;;;;9875313;29;20226;-83
2023/05/04 12:17:42;;;;;;;3.20;2.55;;;;;30.50;100931.00;;;;9879213;29;20297;-82
2023/05/04 12:22:43;;;;;;;4.57;2.50;;;;;30.50;100927.00;;;;9872186;29;20568;-82
2023/05/04 12:27:45;;;;;;;4.53;2.20;;;;;30.70;100911.00;;;;9876694;29;20335;-81
2023/05/04 12:32:46;;;;;;;2.17;1.85;;;;;30.60;100891.00;;;;9869520;29;20317;-85
2023/05/04 12:37:47;;;;;;;3.00;1.60;;;;;30.40;100881.00;;;;9857114;29;21044;-84
2023/05/04 12:42:49;;;;;;;3.58;1.90;;;;;30.10;100890.00;;;;9863766;29;20242;-82
2023/05/04 12:47:50;;;;;;;6.15;2.65;;;;;30.90;100899.00;;;;9882965;29;20223;-81
2023/05/04 12:52:52;;;;;;;5.45;2.20;;;;;30.80;100905.00;;;;9846445;29;20246;-81
2023/05/04 12:57:53;;;;;;;5.93;2.92;;;;;30.60;100915.00;;;;9851849;29;20491;-80
2023/05/04 13:02:54;;;;;;;3.65;2.90;;;;;30.30;100894.00;;;;9849206;29;21694;-83
2023/05/04 13:07:57;;;;;;;4.97;2.47;;;;;29.50;100900.00;;;;9833640;29;20262;-81
2023/05/04 13:12:58;;;;;;;5.22;2.72;;;;;29.50;100897.00;;;;9816502;29;20322;-85
2023/05/04 13:18:00;;;;;;;6.57;2.83;;;;;29.70;100892.00;;;;9834077;29;20237;-85
2023/05/04 13:23:01;;;;;;;2.70;2.47;;;;;29.20;100894.00;;;;9822075;29;20247;-85
2023/05/04 13:28:03;;;;;;;7.00;2.10;;;;;29.20;100889.00;;;;9847205;29;20222;-84
2023/05/04 13:33:04;;;;;;;2.40;2.20;;;;;30.20;100872.00;;;;9832842;29;20714;-80
2023/05/04 13:38:22;;;;;;;2.20;2.00;;;;;29.80;100872.00;;;;9816475;29;20682;-82
2023/05/04 13:43:23;;;;;;;5.55;2.03;;;;;30.80;100849.00;;;;9845635;29;20723;-83
2023/05/04 13:48:25;;;;;;;1.90;1.80;;;;;30.70;100845.00;;;;9846815;29;20254;-82
2023/05/04 13:53:27;;;;;;;5.30;1.60;;;;;30.80;100831.00;;;;9826308;29;21761;-83
2023/05/04 13:58:28;;;;;;;4.82;2.15;;;;;31.70;100815.00;;;;9801544;29;20230;-81
2023/05/04 14:03:30;;;;;;;2.75;1.67;;;;;33.30;100796.00;;;;9818212;29;20245;-82
2023/05/04 14:08:32;;;;;;;2.58;2.08;;;;;35.00;100790.00;;;;9833999;29;20314;-82
2023/05/04 14:13:33;;;;;;;1.60;1.48;;;;;33.90;100785.00;;;;9832995;29;21567;-82
2023/05/04 14:18:34;;;;;;;2.97;1.40;;;;;36.20;100777.00;;;;9850696;29;20222;-82
2023/05/04 14:23:36;;;;;;;2.28;1.33;;;;;37.00;100766.00;;;;9819050;29;20758;-82
2023/05/04 14:28:38;;;;;;;2.58;1.60;;;;;34.00;100766.00;;;;9848495;29;20247;-82
2023/05/04 14:33:40;;;;;;;3.22;1.60;;;;;35.30;100742.00;;;;9816305;29;21300;-83
2023/05/04 14:38:42;;;;;;;3.33;2.15;;;;;31.90;100765.00;;;;9830175;29;20279;-82
2023/05/04 14:43:43;;;;;;;1.85;1.45;;;;;31.90;100750.00;;;;9846537;29;20317;-82
2023/05/04 14:48:44;;;;;;;2.10;1.90;;;;;35.90;100740.00;;;;9832262;29;20570;-82
2023/05/04 14:53:46;;;;;;;2.90;1.83;;;;;37.00;100752.00;;;;9829683;29;20242;-82
2023/05/04 14:58:47;;;;;;;2.45;1.88;;;;;33.10;100759.00;;;;9829515;29;20650;-82
2023/05/04 15:03:49;;;;;;;4.13;2.17;;;;;33.30;100747.00;;;;9830708;29;20231;-82
2023/05/04 15:08:50;;;;;;;3.40;1.85;;;;;30.50;100755.00;;;;9817171;29;20894;-82
2023/05/04 15:13:54;;;;;;;1.90;1.80;;;;;29.10;100758.00;;;;9814229;29;21626;-81
2023/05/04 15:18:55;;;;;;;7.75;1.90;;;;;29.30;100753.00;;;;9813214;29;20255;-82
2023/05/04 15:23:57;;;;;;;3.22;1.88;;;;;28.60;100748.00;;;;9828970;29;20298;-81
2023/05/04 15:28:58;;;;;;;2.22;2.00;;;;;27.70;100749.00;;;;9844741;29;20227;-81
2023/05/04 15:34:00;;;;;;;2.33;2.05;;;;;27.60;100740.00;;;;9828475;29;20219;-80
2023/05/04 15:39:04;;;;;;;2.53;1.70;;;;;28.20;100744.00;;;;9853866;29;20249;-83
2023/05/04 15:44:05;;;;;;;4.57;2.10;;;;;28.50;100740.00;;;;9835260;29;20930;-81
2023/05/04 15:49:07;;;;;;;18.98;14.77;;;;;28.50;100740.00;;;;9849716;29;20218;-79
2023/05/04 15:54:08;;;;;;;13.57;10.93;;;;;28.00;100745.00;;;;9869202;29;21991;-79
2023/05/04 15:59:09;;;;;;;19.85;17.77;;;;;27.90;100739.00;;;;9868924;29;20246;-78
2023/05/04 16:04:11;;;;;;;47.97;35.67;;;;;27.90;100726.00;;;;9855298;29;20238;-78
2023/05/04 16:09:15;;;;;;;21.48;14.63;;;;;27.60;100723.00;;;;9869541;29;21166;-78
2023/05/04 16:14:17;;;;;;;22.27;9.57;;;;;27.50;100720.00;;;;9854140;29;20299;-78
2023/05/04 16:19:18;;;;;;;15.85;10.70;;;;;27.20;100716.00;;;;9873834;29;20338;-78
2023/05/04 16:24:19;;;;;;;113.70;76.93;;;;;27.00;100710.00;;;;9874619;29;20230;-79
2023/05/04 16:29:22;;;;;;;119.72;101.15;;;;;26.90;100718.00;;;;9866442;29;20256;-79
2023/05/04 16:34:23;;;;;;;7.53;4.07;;;;;26.90;100715.00;;;;9850679;29;20215;-78
2023/05/04 16:39:33;;;;;;;3.55;3.08;;;;;26.80;100709.00;;;;9867973;29;20246;-78
2023/05/04 16:44:34;;;;;;;24.52;21.98;;;;;26.60;100706.00;;;;9837841;29;20309;-78
2023/05/04 16:49:35;;;;;;;21.40;17.67;;;;;26.20;100707.00;;;;9851405;29;21879;-78
2023/05/04 16:54:37;;;;;;;7.68;4.00;;;;;25.90;100705.00;;;;9854294;29;21949;-78
2023/05/04 16:59:38;;;;;;;12.63;6.38;;;;;25.80;100710.00;;;;9866244;29;20230;-78
2023/05/04 17:04:39;;;;;;;160.65;129.05;;;;;25.70;100708.00;;;;9863698;29;20283;-78
2023/05/04 17:09:40;;;;;;;19.35;17.40;;;;;25.60;100707.00;;;;9850622;29;20219;-78
2023/05/04 17:14:42;;;;;;;4.55;3.47;;;;;25.70;100706.00;;;;9851387;29;20219;-77
2023/05/04 17:19:43;;;;;;;8.27;4.20;;;;;25.80;100716.00;;;;9851023;29;20253;-77
2023/05/04 17:24:44;;;;;;;5.20;3.42;;;;;25.50;100721.00;;;;9862928;29;20318;-79
2023/05/04 17:29:46;;;;;;;3.63;2.22;;;;;25.10;100725.00;;;;9829187;29;20239;-78
2023/05/04 17:34:48;;;;;;;3.90;2.42;;;;;24.60;100724.00;;;;9829436;29;20258;-78
2023/05/04 17:39:49;;;;;;;3.15;2.15;;;;;24.30;100733.00;;;;9822436;29;20242;-79
2023/05/04 17:44:50;;;;;;;3.40;2.40;;;;;24.20;100733.00;;;;9843507;29;20357;-79
2023/05/04 17:49:52;;;;;;;3.53;3.13;;;;;24.00;100728.00;;;;9830774;29;20229;-79
2023/05/04 17:54:53;;;;;;;8.25;2.95;;;;;23.80;100741.00;;;;9845566;29;20227;-78
2023/05/04 17:59:54;;;;;;;3.20;2.35;;;;;23.70;100743.00;;;;9847644;29;20244;-79
2023/05/04 18:04:56;;;;;;;4.50;2.80;;;;;23.40;100742.00;;;;9851483;29;21047;-79
2023/05/04 18:09:57;;;;;;;3.22;2.78;;;;;23.10;100747.00;;;;9840027;29;20242;-80
2023/05/04 18:14:58;;;;;;;3.83;2.33;;;;;22.80;100758.00;;;;9834450;29;20222;-81
2023/05/04 18:20:00;;;;;;;2.90;2.70;;;;;22.60;100751.00;;;;9864789;29;20311;-80
2023/05/04 18:25:01;;;;;;;4.80;2.78;;;;;22.30;100755.00;;;;9842502;29;20249;-81
2023/05/04 18:30:04;;;;;;;3.97;2.83;;;;;22.10;100768.00;;;;9833873;29;20242;-80
2023/05/04 18:35:08;;;;;;;3.30;3.00;;;;;21.90;100764.00;;;;9845433;29;20892;-79
2023/05/04 18:40:10;;;;;;;7.35;2.72;;;;;21.60;100772.00;;;;9846288;29;20234;-79
2023/05/04 18:45:12;;;;;;;4.75;3.05;;;;;21.40;100773.00;;;;9831244;29;20304;-79
2023/05/04 18:50:13;;;;;;;3.78;3.20;;;;;21.30;100789.00;;;;9811052;29;20307;-80
2023/05/04 18:55:14;;;;;;;5.90;3.13;;;;;21.10;100789.00;;;;9829541;29;22025;-79
2023/05/04 19:00:16;;;;;;;9.77;3.08;;;;;21.00;100793.00;;;;9842328;29;20243;-79
2023/05/04 19:05:17;;;;;;;4.43;3.50;;;;;20.90;100790.00;;;;9840315;29;20219;-79
2023/05/04 19:10:19;;;;;;;4.95;3.38;;;;;20.80;100787.00;;;;9839668;29;21715;-79
2023/05/04 19:15:21;;;;;;;3.60;3.30;;;;;20.70;100794.00;;;;9836006;29;20349;-80
2023/05/04 19:20:23;;;;;;;4.38;3.17;;;;;20.70;100806.00;;;;9833806;29;20249;-79
2023/05/04 19:25:24;;;;;;;7.55;3.38;;;;;20.70;100797.00;;;;9826717;29;20227;-79
2023/05/04 19:30:37;;;;;;;7.93;2.92;;;;;20.60;100807.00;;;;9834393;29;20227;-79
2023/05/04 19:35:39;;;;;;;3.67;3.30;;;;;20.50;100820.00;;;;9850975;29;20233;-79
2023/05/04 19:40:40;;;;;;;5.88;3.72;;;;;20.20;100818.00;;;;9865513;29;20234;-79
2023/05/04 19:45:44;;;;;;;4.75;3.90;;;;;20.00;100835.00;;;;9852100;29;20230;-79
2023/05/04 19:50:46;;;;;;;6.78;3.72;;;;;19.90;100824.00;;;;9853364;29;21941;-78
2023/05/04 19:55:47;;;;;;;8.60;4.13;;;;;19.90;100828.00;;;;9868123;29;20231;-78
2023/05/04 20:00:49;;;;;;;6.85;4.53;;;;;19.90;100839.00;;;;9853666;29;21846;-78
2023/05/04 20:05:51;;;;;;;7.65;4.65;;;;;19.80;100835.00;;;;9847267;29;20218;-78
2023/05/04 20:10:52;;;;;;;8.18;4.85;;;;;19.80;100854.00;;;;9818022;29;20223;-79
2023/05/04 20:15:53;;;;;;;7.75;4.38;;;;;19.90;100849.00;;;;9848741;29;20474;-78
2023/05/04 20:20:55;;;;;;;5.43;4.72;;;;;19.80;100860.00;;;;9868120;29;20243;-79
2023/05/04 20:25:56;;;;;;;5.35;4.35;;;;;19.80;100854.00;;;;9853185;29;21965;-78
2023/05/04 20:30:58;;;;;;;6.95;4.20;;;;;19.90;100854.00;;;;9849918;29;20235;-78
2023/05/04 20:35:59;;;;;;;4.63;4.18;;;;;20.00;100847.00;;;;9833946;29;20260;-79
2023/05/04 20:41:05;;;;;;;9.27;4.88;;;;;19.90;100850.00;;;;9848423;29;20267;-78
2023/05/04 20:46:07;;;;;;;6.22;4.80;;;;;19.80;100847.00;;;;9850979;29;20265;-77
2023/05/04 20:51:08;;;;;;;7.15;5.55;;;;;19.80;100844.00;;;;9850268;29;20239;-79
2023/05/04 20:56:16;;;;;;;5.60;5.03;;;;;19.80;100858.00;;;;9834858;29;20229;-78
2023/05/04 21:01:17;;;;;;;7.95;5.07;;;;;19.50;100857.00;;;;9834400;29;20380;-79
2023/05/04 21:06:19;;;;;;;10.13;5.53;;;;;19.20;100867.00;;;;9834982;29;20861;-79
2023/05/04 21:11:21;;;;;;;7.55;5.53;;;;;19.00;100862.00;;;;9835239;29;20230;-78
2023/05/04 21:16:22;;;;;;;6.88;5.78;;;;;18.60;100859.00;;;;9834124;29;21859;-78
2023/05/04 21:21:24;;;;;;;6.88;5.43;;;;;18.50;100847.00;;;;9849224;29;20273;-79
2023/05/04 21:26:25;;;;;;;5.65;5.05;;;;;18.40;100864.00;;;;9850942;29;20805;-79
2023/05/04 21:31:27;;;;;;;8.88;5.30;;;;;18.30;100864.00;;;;9834299;29;20233;-79
2023/05/04 21:36:28;;;;;;;6.45;5.55;;;;;18.40;100885.00;;;;9847824;29;20234;-78
2023/05/04 21:41:30;;;;;;;10.75;6.13;;;;;18.30;100889.00;;;;9848512;29;20242;-79
2023/05/04 21:46:31;;;;;;;8.57;5.50;;;;;18.40;100899.00;;;;9846946;29;20226;-77
2023/05/04 21:51:32;;;;;;;6.68;5.90;;;;;18.40;100903.00;;;;9829640;29;20346;-78
2023/05/04 21:56:34;;;;;;;8.35;6.03;;;;;18.40;100902.00;;;;9830232;29;20233;-78
2023/05/04 22:01:36;;;;;;;9.95;6.00;;;;;18.40;100894.00;;;;9861555;29;20333;-77
2023/05/04 22:06:37;;;;;;;12.60;6.70;;;;;18.40;100893.00;;;;9832569;29;20223;-78
2023/05/04 22:11:39;;;;;;;9.43;6.72;;;;;18.30;100885.00;;;;9846537;29;20323;-78
2023/05/04 22:16:40;;;;;;;7.80;6.50;;;;;18.30;100880.00;;;;9848211;29;22245;-77
2023/05/04 22:21:41;;;;;;;10.25;6.95;;;;;18.20;100879.00;;;;9846769;29;20703;-76
2023/05/04 22:26:43;;;;;;;8.38;6.75;;;;;18.10;100883.00;;;;9861832;29;20231;-77
2023/05/04 22:31:44;;;;;;;8.65;6.85;;;;;18.00;100883.00;;;;9849021;29;20230;-77
2023/05/04 22:36:46;;;;;;;8.05;6.35;;;;;18.00;100891.00;;;;9849509;29;20226;-78
2023/05/04 22:41:47;;;;;;;8.43;7.53;;;;;17.80;100903.00;;;;9863613;29;20250;-76
2023/05/04 22:46:48;;;;;;;11.02;7.95;;;;;17.80;100908.00;;;;9848576;29;20226;-78
2023/05/04 22:51:50;;;;;;;13.77;9.70;;;;;17.90;100923.00;;;;9831714;29;20249;-77
2023/05/04 22:56:51;;;;;;;14.68;10.50;;;;;17.90;100938.00;;;;9863647;29;20226;-77
2023/05/04 23:01:52;;;;;;;11.98;10.65;;;;;17.80;100955.00;;;;9843041;29;20971;-78
2023/05/04 23:06:54;;;;;;;12.73;11.43;;;;;17.70;100963.00;;;;9876178;29;20230;-78
2023/05/04 23:11:55;;;;;;;14.98;12.52;;;;;17.50;100974.00;;;;9877258;29;20313;-77
2023/05/04 23:16:57;;;;;;;15.07;12.05;;;;;17.30;100974.00;;;;9878560;29;20234;-77
2023/05/04 23:21:58;;;;;;;15.07;11.73;;;;;17.20;100985.00;;;;9860563;29;21886;-77
2023/05/04 23:27:00;;;;;;;15.48;12.00;;;;;17.10;100982.00;;;;9860808;29;22415;-77
2023/05/04 23:32:02;;;;;;;16.92;11.77;;;;;17.00;100995.00;;;;9860510;29;20218;-79
2023/05/04 23:37:04;;;;;;;11.52;10.30;;;;;16.80;100997.00;;;;9828816;29;20223;-79
2023/05/04 23:42:05;;;;;;;13.90;10.80;;;;;16.80;100994.00;;;;9859253;29;20373;-79
2023/05/04 23:47:06;;;;;;;10.43;8.88;;;;;16.80;101001.00;;;;9860185;29;20915;-79
2023/05/04 23:52:08;;;;;;;11.57;8.63;;;;;16.70;100996.00;;;;9873501;29;20219;-79
2023/05/04 23:57:09;;;;;;;9.23;8.00;;;;;16.50;101008.00;;;;9873461;29;20237;-79
